createdAt,value
2018-09-12T00:02:16.088Z,6.03
2018-09-12T00:04:43.704Z,5.00
2018-09-12T00:07:11.249Z,4.30
2018-09-12T00:09:38.787Z,4.30
2018-09-12T00:12:06.363Z,3.20
2018-09-12T00:14:33.874Z,4.00
2018-09-12T00:17:01.402Z,3.13
2018-09-12T00:19:28.949Z,3.80
2018-09-12T00:21:56.445Z,4.10
2018-09-12T00:24:23.921Z,3.40
2018-09-12T00:26:51.528Z,3.53
2018-09-12T00:29:19.172Z,4.17
2018-09-12T00:31:46.740Z,3.23
2018-09-12T00:34:14.147Z,4.03
2018-09-12T00:36:41.667Z,3.97
2018-09-12T00:39:10.625Z,4.20
2018-09-12T00:41:38.147Z,3.70
2018-09-12T00:44:05.847Z,4.77
2018-09-12T00:46:33.341Z,3.57
2018-09-12T00:49:00.926Z,3.40
2018-09-12T00:51:28.443Z,5.30
2018-09-12T00:53:55.888Z,3.63
2018-09-12T00:56:23.398Z,3.70
2018-09-12T00:58:50.875Z,4.77
2018-09-12T01:01:18.382Z,3.20
2018-09-12T01:03:45.897Z,4.47
2018-09-12T01:06:13.412Z,3.93
2018-09-12T01:08:40.984Z,3.80
2018-09-12T01:11:08.475Z,3.80
2018-09-12T01:13:37.493Z,3.80
2018-09-12T01:16:05.101Z,3.60
2018-09-12T01:21:31.588Z,4.00
2018-09-12T01:23:59.536Z,3.53
2018-09-12T01:26:27.124Z,3.77
2018-09-12T01:28:54.834Z,3.13
2018-09-12T01:31:22.431Z,4.30
2018-09-12T01:33:50.067Z,4.20
2018-09-12T01:36:17.609Z,3.53
2018-09-12T01:38:45.173Z,4.03
2018-09-12T01:41:12.720Z,4.00
2018-09-12T01:43:40.335Z,3.63
2018-09-12T01:46:07.849Z,4.53
2018-09-12T01:48:35.299Z,3.97
2018-09-12T01:51:03.027Z,3.40
2018-09-12T01:53:30.693Z,3.77
2018-09-12T01:55:58.299Z,3.13
2018-09-12T01:58:25.736Z,4.90
2018-09-12T02:00:54.856Z,3.40
2018-09-12T02:03:22.403Z,3.57
2018-09-12T02:05:49.830Z,3.97
2018-09-12T02:08:17.457Z,3.97
2018-09-12T02:10:45.014Z,4.10
2018-09-12T02:13:12.497Z,3.20
2018-09-12T02:15:40.179Z,3.63
2018-09-12T02:18:07.750Z,4.37
2018-09-12T02:20:35.302Z,3.70
2018-09-12T02:23:02.871Z,3.83
2018-09-12T02:25:30.452Z,4.30
2018-09-12T02:27:57.981Z,3.10
2018-09-12T02:30:25.471Z,3.07
2018-09-12T02:32:53.023Z,3.73
2018-09-12T02:35:20.572Z,3.73
2018-09-12T02:37:48.168Z,3.70
2018-09-12T02:40:15.723Z,2.70
2018-09-12T02:42:44.080Z,3.30
2018-09-12T02:45:11.641Z,3.87
2018-09-12T02:47:39.623Z,3.80
2018-09-12T02:50:11.173Z,3.60
2018-09-12T02:52:38.700Z,3.47
2018-09-12T02:55:07.673Z,3.37
2018-09-12T02:57:35.294Z,3.50
2018-09-12T03:00:02.988Z,2.93
2018-09-12T03:02:30.608Z,3.53
2018-09-12T03:04:58.117Z,3.60
2018-09-12T03:07:25.758Z,3.27
2018-09-12T03:09:53.326Z,3.80
2018-09-12T03:12:20.841Z,3.13
2018-09-12T03:14:48.365Z,3.53
2018-09-12T03:17:15.864Z,3.30
2018-09-12T03:19:43.354Z,3.10
2018-09-12T03:22:10.863Z,4.07
2018-09-12T03:24:38.559Z,3.07
2018-09-12T03:27:07.293Z,3.07
2018-09-12T03:29:34.803Z,3.67
2018-09-12T03:32:02.337Z,3.03
2018-09-12T03:34:30.099Z,3.40
2018-09-12T03:36:57.720Z,3.60
2018-09-12T03:39:25.265Z,3.50
2018-09-12T03:41:52.731Z,3.73
2018-09-12T03:44:20.414Z,3.47
2018-09-12T03:46:47.861Z,3.67
2018-09-12T03:49:15.464Z,3.50
2018-09-12T03:51:43.477Z,3.27
2018-09-12T03:54:11.056Z,2.93
2018-09-12T03:56:38.632Z,2.80
2018-09-12T03:59:06.273Z,3.30
2018-09-12T04:01:34.090Z,3.93
2018-09-12T04:04:01.851Z,3.13
2018-09-12T04:06:29.457Z,4.00
2018-09-12T04:08:57.007Z,3.07
2018-09-12T04:11:24.484Z,3.83
2018-09-12T04:13:52.116Z,3.37
2018-09-12T04:16:19.868Z,3.83
2018-09-12T04:18:47.432Z,3.70
2018-09-12T04:21:14.924Z,3.20
2018-09-12T04:23:42.485Z,2.97
2018-09-12T04:26:10.083Z,3.97
2018-09-12T04:28:37.583Z,3.63
2018-09-12T04:31:05.256Z,3.43
2018-09-12T04:33:32.868Z,3.67
2018-09-12T04:36:00.434Z,3.97
2018-09-12T04:38:28.180Z,5.27
2018-09-12T04:40:55.636Z,3.80
2018-09-12T04:43:30.154Z,4.00
2018-09-12T04:45:58.429Z,4.13
2018-09-12T04:48:27.394Z,4.60
2018-09-12T04:50:54.888Z,4.53
2018-09-12T04:53:22.460Z,3.90
2018-09-12T04:55:50.110Z,5.00
2018-09-12T04:58:17.728Z,4.77
2018-09-12T05:00:45.397Z,4.33
2018-09-12T05:03:13.017Z,4.03
2018-09-12T05:05:40.606Z,3.80
2018-09-12T05:08:08.141Z,4.27
2018-09-12T05:10:35.960Z,4.10
2018-09-12T05:13:03.624Z,4.10
2018-09-12T05:15:31.169Z,7.40
2018-09-12T05:17:58.702Z,4.60
2018-09-12T05:20:26.125Z,6.50
2018-09-12T05:22:53.767Z,5.90
2018-09-12T05:25:21.316Z,5.63
2018-09-12T05:27:48.902Z,5.27
2018-09-12T05:30:16.331Z,4.67
2018-09-12T05:32:44.519Z,4.80
2018-09-12T05:35:13.595Z,4.30
2018-09-12T05:37:41.120Z,3.90
2018-09-12T05:40:10.517Z,4.03
2018-09-12T05:42:38.471Z,3.70
2018-09-12T05:45:06.716Z,4.57
2018-09-12T05:47:35.466Z,4.10
2018-09-12T05:50:03.227Z,4.00
2018-09-12T05:52:30.764Z,8.50
2018-09-12T05:54:58.360Z,6.87
2018-09-12T05:57:25.842Z,5.57
2018-09-12T05:59:54.064Z,4.47
2018-09-12T06:02:21.635Z,5.10
2018-09-12T06:04:49.112Z,4.67
2018-09-12T06:07:16.748Z,4.40
2018-09-12T06:09:44.147Z,4.17
2018-09-12T06:12:11.699Z,4.67
2018-09-12T06:14:39.267Z,5.27
2018-09-12T06:17:06.773Z,5.20
2018-09-12T06:19:34.439Z,4.93
2018-09-12T06:22:02.015Z,4.93
2018-09-12T06:24:29.516Z,5.60
2018-09-12T06:26:57.401Z,5.70
2018-09-12T06:29:25.055Z,5.47
2018-09-12T06:31:52.587Z,5.20
2018-09-12T06:34:20.107Z,5.17
2018-09-12T06:36:47.874Z,5.40
2018-09-12T06:39:15.494Z,4.90
2018-09-12T06:41:43.034Z,5.80
2018-09-12T06:44:10.598Z,4.90
2018-09-12T06:46:38.157Z,4.80
2018-09-12T06:49:06.324Z,5.43
2018-09-12T06:51:33.844Z,5.50
2018-09-12T06:54:03.667Z,6.03
2018-09-12T06:56:31.302Z,7.97
2018-09-12T06:58:58.853Z,6.00
2018-09-12T07:01:26.424Z,5.23
2018-09-12T07:03:53.971Z,6.10
2018-09-12T07:06:21.533Z,5.03
2018-09-12T07:08:49.121Z,8.07
2018-09-12T07:11:17.000Z,5.33
2018-09-12T07:13:44.576Z,5.83
2018-09-12T07:16:12.124Z,5.10
2018-09-12T07:18:39.635Z,6.60
2018-09-12T07:21:07.112Z,6.13
2018-09-12T07:23:34.679Z,5.77
2018-09-12T07:26:02.193Z,6.20
2018-09-12T07:28:29.704Z,5.60
2018-09-12T07:30:57.380Z,6.50
2018-09-12T07:33:24.892Z,5.67
2018-09-12T07:35:52.434Z,5.20
2018-09-12T07:38:19.992Z,5.97
2018-09-12T07:40:47.552Z,5.63
2018-09-12T07:43:14.959Z,5.07
2018-09-12T07:45:42.495Z,5.87
2018-09-12T07:48:10.002Z,4.10
2018-09-12T07:50:37.633Z,4.40
2018-09-12T07:53:05.196Z,4.30
2018-09-12T07:55:32.701Z,4.33
2018-09-12T07:58:00.653Z,4.20
2018-09-12T08:00:28.233Z,3.67
2018-09-12T08:02:55.729Z,6.80
2018-09-12T08:05:23.316Z,4.60
2018-09-12T08:07:50.931Z,3.10
2018-09-12T08:10:18.427Z,3.80
2018-09-12T08:12:45.981Z,4.83
2018-09-12T08:15:13.530Z,4.60
2018-09-12T08:17:41.020Z,4.90
2018-09-12T08:20:08.566Z,4.30
2018-09-12T08:22:36.163Z,4.30
2018-09-12T08:25:03.881Z,4.43
2018-09-12T08:27:31.402Z,4.90
2018-09-12T08:29:58.980Z,4.07
2018-09-12T08:39:26.650Z,3.63
2018-09-12T08:41:54.149Z,4.20
2018-09-12T08:44:21.663Z,4.17
2018-09-12T08:46:49.270Z,3.77
2018-09-12T08:49:16.913Z,3.47
2018-09-12T08:51:45.241Z,4.20
2018-09-12T08:54:12.764Z,3.30
2018-09-12T08:56:40.326Z,3.60
2018-09-12T08:59:07.807Z,3.60
2018-09-12T09:01:35.346Z,3.60
2018-09-12T09:04:02.907Z,4.60
2018-09-12T09:06:30.466Z,3.97
2018-09-12T09:08:58.066Z,4.33
2018-09-12T09:11:25.863Z,4.43
2018-09-12T09:13:53.528Z,4.10
2018-09-12T09:16:21.131Z,4.03
2018-09-12T09:18:48.695Z,4.07
2018-09-12T09:21:16.310Z,3.53
2018-09-12T09:23:44.163Z,4.43
2018-09-12T09:26:11.632Z,4.20
2018-09-12T09:28:39.188Z,3.70
2018-09-12T09:31:06.730Z,3.43
2018-09-12T09:33:34.448Z,4.73
2018-09-12T09:36:02.116Z,3.53
2018-09-12T09:38:29.736Z,3.60
2018-09-12T09:40:57.321Z,3.47
2018-09-12T09:43:24.933Z,4.07
2018-09-12T09:45:52.542Z,3.60
2018-09-12T09:48:20.189Z,3.03
2018-09-12T09:50:47.777Z,3.97
2018-09-12T09:53:15.355Z,3.50
2018-09-12T09:55:42.921Z,3.07
2018-09-12T09:58:10.432Z,3.30
2018-09-12T10:00:43.577Z,3.87
2018-09-12T10:03:16.808Z,3.30
2018-09-12T10:05:50.195Z,3.30
2018-09-12T10:08:23.292Z,3.33
2018-09-12T10:10:50.889Z,4.63
2018-09-12T10:13:18.363Z,2.97
2018-09-12T10:15:45.889Z,3.50
2018-09-12T10:18:13.351Z,3.60
2018-09-12T10:20:40.892Z,3.60
2018-09-12T10:23:08.427Z,3.97
2018-09-12T10:25:35.942Z,4.40
2018-09-12T10:28:03.441Z,4.30
2018-09-12T10:30:31.010Z,3.83
2018-09-12T10:32:58.536Z,4.00
2018-09-12T10:35:26.118Z,3.97
2018-09-12T10:37:53.631Z,4.17
2018-09-12T10:40:21.193Z,3.80
2018-09-12T10:42:48.673Z,3.77
2018-09-12T10:45:16.250Z,4.30
2018-09-12T10:47:43.811Z,3.90
2018-09-12T10:50:11.357Z,3.80
2018-09-12T10:52:38.961Z,4.10
2018-09-12T10:55:06.571Z,5.00
2018-09-12T10:57:34.056Z,4.70
2018-09-12T11:00:01.596Z,4.27
2018-09-12T11:02:29.117Z,4.30
2018-09-12T11:04:56.659Z,4.37
2018-09-12T11:07:24.229Z,3.73
2018-09-12T11:09:51.871Z,4.40
2018-09-12T11:12:19.304Z,4.10
2018-09-12T11:14:46.774Z,4.80
2018-09-12T11:17:14.402Z,3.40
2018-09-12T11:19:41.822Z,5.10
2018-09-12T11:22:09.465Z,4.53
2018-09-12T11:24:37.005Z,3.70
2018-09-12T11:27:04.671Z,3.93
2018-09-12T11:29:32.163Z,4.27
2018-09-12T11:31:59.718Z,4.27
2018-09-12T11:34:27.281Z,3.90
2018-09-12T11:36:54.812Z,4.17
2018-09-12T11:39:22.367Z,4.03
2018-09-12T11:41:50.050Z,3.70
2018-09-12T11:44:17.588Z,3.37
2018-09-12T11:46:45.185Z,3.20
2018-09-12T11:49:12.801Z,3.83
2018-09-12T11:51:40.305Z,3.87
2018-09-12T11:54:07.876Z,3.23
2018-09-12T11:56:35.540Z,3.40
2018-09-12T11:59:03.089Z,3.30
2018-09-12T12:01:30.662Z,5.57
2018-09-12T12:03:58.248Z,3.10
2018-09-12T12:06:25.682Z,3.67
2018-09-12T12:08:53.270Z,3.97
2018-09-12T12:11:22.312Z,4.13
2018-09-12T12:13:49.839Z,4.50
2018-09-12T12:16:17.446Z,3.60
2018-09-12T12:18:45.296Z,3.70
2018-09-12T12:21:12.888Z,4.20
2018-09-12T12:23:40.773Z,3.03
2018-09-12T12:26:08.393Z,3.50
2018-09-12T12:28:36.021Z,3.63
2018-09-12T12:31:03.863Z,4.17
2018-09-12T12:33:31.884Z,4.93
2018-09-12T12:35:59.693Z,3.20
2018-09-12T12:38:27.223Z,4.07
2018-09-12T12:40:54.765Z,4.30
2018-09-12T12:43:22.376Z,3.63
2018-09-12T12:45:50.075Z,3.70
2018-09-12T12:48:17.623Z,4.30
2018-09-12T12:50:45.349Z,3.47
2018-09-12T12:53:12.844Z,4.50
2018-09-12T12:55:40.433Z,3.67
2018-09-12T12:58:08.082Z,3.60
2018-09-12T13:00:37.659Z,3.70
2018-09-12T13:03:05.363Z,3.67
2018-09-12T13:05:32.995Z,2.80
2018-09-12T13:08:00.552Z,3.40
2018-09-12T13:10:28.148Z,3.80
2018-09-12T13:12:55.727Z,3.23
2018-09-12T13:15:23.169Z,3.40
2018-09-12T13:17:50.844Z,3.17
2018-09-12T13:20:18.476Z,2.67
2018-09-12T13:22:46.034Z,3.27
2018-09-12T13:25:13.571Z,3.40
2018-09-12T13:27:41.168Z,4.20
2018-09-12T13:30:08.688Z,3.10
2018-09-12T13:32:36.302Z,3.50
2018-09-12T13:35:03.971Z,3.47
2018-09-12T13:37:31.548Z,2.53
2018-09-12T13:40:00.085Z,3.10
2018-09-12T13:42:27.705Z,2.30
2018-09-12T13:44:55.313Z,4.80
2018-09-12T13:47:23.222Z,3.30
2018-09-12T13:49:51.570Z,2.50
2018-09-12T13:52:19.080Z,2.97
2018-09-12T13:54:46.639Z,5.10
2018-09-12T13:57:14.291Z,2.70
2018-09-12T13:59:41.848Z,4.33
2018-09-12T14:02:09.471Z,2.80
2018-09-12T14:04:36.908Z,3.13
2018-09-12T14:07:04.543Z,2.70
2018-09-12T14:09:32.141Z,4.20
2018-09-12T14:11:59.656Z,3.70
2018-09-12T14:14:27.203Z,3.10
2018-09-12T14:16:54.736Z,3.40
2018-09-12T14:19:22.409Z,3.60
2018-09-12T14:21:49.838Z,2.70
2018-09-12T14:24:17.334Z,2.00
2018-09-12T14:26:44.867Z,2.33
2018-09-12T14:29:12.281Z,3.43
2018-09-12T14:31:39.817Z,2.67
2018-09-12T14:34:07.469Z,2.80
2018-09-12T14:36:35.159Z,2.80
2018-09-12T14:39:03.028Z,2.77
2018-09-12T14:41:30.490Z,2.43
2018-09-12T14:43:58.118Z,2.90
2018-09-12T14:47:29.548Z,2.73
2018-09-12T14:49:57.141Z,2.00
2018-09-12T14:52:24.688Z,2.80
2018-09-12T14:54:52.240Z,7.40
2018-09-12T14:57:19.834Z,3.80
2018-09-12T14:59:47.348Z,4.20
2018-09-12T15:02:14.871Z,3.67
2018-09-12T15:04:42.366Z,7.37
2018-09-12T15:07:09.970Z,4.40
2018-09-12T15:09:37.425Z,3.90
2018-09-12T15:12:04.883Z,3.50
2018-09-12T15:14:32.404Z,3.80
2018-09-12T15:17:00.020Z,3.40
2018-09-12T15:19:27.589Z,2.97
2018-09-12T15:21:55.123Z,3.37
2018-09-12T15:24:22.571Z,3.93
2018-09-12T15:26:50.180Z,2.90
2018-09-12T15:29:17.588Z,3.77
2018-09-12T15:31:45.062Z,3.60
2018-09-12T15:34:12.562Z,3.00
2018-09-12T15:36:40.090Z,4.80
2018-09-12T15:39:09.116Z,2.60
2018-09-12T15:41:36.811Z,4.23
2018-09-12T15:44:04.461Z,2.90
2018-09-12T15:46:32.649Z,3.33
2018-09-12T15:49:00.141Z,4.50
2018-09-12T15:51:27.658Z,5.57
2018-09-12T15:53:55.294Z,4.17
2018-09-12T15:56:22.697Z,3.27
2018-09-12T15:58:50.126Z,3.30
2018-09-12T16:01:17.645Z,2.83
2018-09-12T16:03:45.256Z,3.10
2018-09-12T16:06:12.803Z,3.23
2018-09-12T16:08:40.429Z,4.03
2018-09-12T16:11:08.061Z,3.03
2018-09-12T16:13:40.851Z,3.73
2018-09-12T16:16:08.477Z,3.30
2018-09-12T16:18:36.527Z,3.30
2018-09-12T16:21:04.800Z,3.07
2018-09-12T16:23:33.839Z,3.03
2018-09-12T16:26:01.861Z,3.80
2018-09-12T16:28:30.544Z,3.50
2018-09-12T16:30:58.369Z,3.33
2018-09-12T16:33:26.111Z,5.23
2018-09-12T16:35:53.795Z,4.73
2018-09-12T16:38:21.423Z,5.20
2018-09-12T16:40:49.644Z,4.50
2018-09-12T16:43:17.386Z,4.50
2018-09-12T16:45:45.065Z,6.43
2018-09-12T16:48:12.655Z,4.40
2018-09-12T16:50:40.290Z,4.17
2018-09-12T16:53:08.065Z,3.97
2018-09-12T16:55:35.822Z,3.87
2018-09-12T16:58:08.909Z,5.57
2018-09-12T17:00:40.659Z,4.63
2018-09-12T17:03:11.037Z,6.30
2018-09-12T17:05:41.280Z,5.77
2018-09-12T17:08:10.254Z,5.73
2018-09-12T17:10:38.281Z,4.60
2018-09-12T17:13:07.255Z,5.57
2018-09-12T17:15:35.717Z,4.97
2018-09-12T17:18:04.420Z,7.00
2018-09-12T17:20:32.502Z,4.63
2018-09-12T17:23:00.772Z,4.23
2018-09-12T17:25:29.872Z,4.37
2018-09-12T17:27:58.179Z,3.53
2018-09-12T17:30:25.904Z,3.90
2018-09-12T17:32:54.599Z,3.90
2018-09-12T17:35:23.885Z,6.23
2018-09-12T17:37:56.728Z,3.03
2018-09-12T17:40:25.101Z,5.37
2018-09-12T17:42:53.531Z,5.40
2018-09-12T17:45:21.198Z,4.77
2018-09-12T17:47:48.889Z,13.90
2018-09-12T17:50:17.442Z,5.50
2018-09-12T17:52:46.382Z,5.20
2018-09-12T17:55:15.315Z,6.00
2018-09-12T17:57:43.100Z,3.73
2018-09-12T18:00:11.068Z,5.97
2018-09-12T18:02:39.029Z,4.50
2018-09-12T18:05:07.990Z,3.30
2018-09-12T18:07:37.578Z,3.30
2018-09-12T18:10:08.997Z,3.73
2018-09-12T18:12:37.269Z,3.97
2018-09-12T18:15:05.201Z,3.83
2018-09-12T18:17:32.775Z,3.33
2018-09-12T18:20:00.578Z,3.47
2018-09-12T18:22:28.109Z,3.83
2018-09-12T18:24:55.625Z,3.90
2018-09-12T18:27:23.063Z,5.13
2018-09-12T18:29:51.560Z,4.97
2018-09-12T18:32:19.087Z,4.60
2018-09-12T18:34:47.663Z,6.77
2018-09-12T18:37:16.271Z,6.70
2018-09-12T18:39:44.597Z,3.77
2018-09-12T18:42:12.089Z,4.00
2018-09-12T18:44:39.631Z,4.13
2018-09-12T18:47:07.184Z,4.60
2018-09-12T18:49:34.750Z,4.60
2018-09-12T18:52:02.311Z,4.17
2018-09-12T18:54:29.932Z,4.60
2018-09-12T18:56:57.473Z,3.43
2018-09-12T18:59:25.021Z,3.93
2018-09-12T19:01:52.545Z,3.73
2018-09-12T19:04:20.189Z,4.77
2018-09-12T19:06:47.871Z,4.30
2018-09-12T19:09:15.502Z,4.53
2018-09-12T19:11:43.749Z,4.60
2018-09-12T19:14:11.550Z,3.83
2018-09-12T19:16:39.274Z,4.77
2018-09-12T19:19:06.932Z,4.47
2018-09-12T19:21:34.562Z,4.17
2018-09-12T19:24:02.412Z,4.77
2018-09-12T19:26:30.057Z,4.80
2018-09-12T19:28:57.541Z,4.40
2018-09-12T19:31:25.177Z,4.37
2018-09-12T19:33:52.859Z,4.43
2018-09-12T19:36:20.319Z,5.57
2018-09-12T19:38:47.929Z,5.83
2018-09-12T19:41:15.567Z,6.20
2018-09-12T19:43:43.070Z,5.70
2018-09-12T19:46:10.623Z,5.20
2018-09-12T19:48:38.113Z,6.23
2018-09-12T19:51:11.407Z,5.87
2018-09-12T19:53:39.019Z,5.80
2018-09-12T19:56:07.731Z,6.83
2018-09-12T19:58:36.300Z,6.47
2018-09-12T20:01:04.038Z,6.57
2018-09-12T20:03:31.642Z,6.10
2018-09-12T20:05:59.929Z,6.93
2018-09-12T20:08:29.038Z,8.37
2018-09-12T20:10:56.815Z,8.80
2018-09-12T20:13:24.869Z,8.23
2018-09-12T20:15:53.483Z,8.43
2018-09-12T20:18:21.555Z,8.27
2018-09-12T20:20:50.441Z,7.40
2018-09-12T20:23:29.401Z,8.50
2018-09-12T20:25:56.965Z,8.83
2018-09-12T20:28:41.347Z,8.57
2018-09-12T20:31:10.418Z,7.57
2018-09-12T20:33:38.696Z,10.00
2018-09-12T20:36:06.986Z,9.70
2018-09-12T20:38:34.820Z,8.80
2018-09-12T20:41:03.579Z,9.50
2018-09-12T20:43:32.493Z,12.63
2018-09-12T20:46:02.390Z,9.73
2018-09-12T20:48:32.646Z,8.50
2018-09-12T20:51:02.819Z,9.80
2018-09-12T20:53:31.498Z,10.00
2018-09-12T20:55:59.152Z,10.33
2018-09-12T20:58:27.075Z,10.77
2018-09-12T21:00:54.977Z,11.13
2018-09-12T21:03:24.078Z,10.57
2018-09-12T21:05:53.572Z,10.63
2018-09-12T21:08:24.384Z,10.47
2018-09-12T21:10:51.951Z,10.30
2018-09-12T21:13:19.594Z,11.17
2018-09-12T21:15:52.818Z,11.57
2018-09-12T21:18:26.037Z,11.00
2018-09-12T21:21:00.023Z,11.87
2018-09-12T21:23:37.814Z,10.90
2018-09-12T21:26:05.459Z,11.63
2018-09-12T21:28:33.030Z,11.10
2018-09-12T21:31:00.592Z,12.60
2018-09-12T21:33:28.307Z,11.77
2018-09-12T21:35:55.893Z,11.17
2018-09-12T21:38:23.481Z,11.90
2018-09-12T21:40:51.072Z,11.33
2018-09-12T21:43:19.310Z,11.40
2018-09-12T21:45:47.760Z,11.93
2018-09-12T21:48:15.744Z,12.03
2018-09-12T21:50:46.115Z,11.57
2018-09-12T21:53:13.654Z,10.87
2018-09-12T21:55:41.992Z,10.63
2018-09-12T21:58:09.503Z,11.83
2018-09-12T22:00:37.528Z,11.13
2018-09-12T22:03:05.213Z,11.10
2018-09-12T22:05:32.686Z,12.20
2018-09-12T22:08:00.356Z,11.03
2018-09-12T22:10:28.044Z,11.30
2018-09-12T22:12:55.741Z,11.30
2018-09-12T22:15:23.395Z,11.67
2018-09-12T22:17:50.851Z,11.60
2018-09-12T22:20:18.348Z,11.10
2018-09-12T22:22:46.073Z,10.53
2018-09-12T22:25:13.627Z,11.17
2018-09-12T22:27:41.988Z,10.53
2018-09-12T22:30:10.136Z,10.13
2018-09-12T22:32:38.684Z,10.73
2018-09-12T22:35:06.141Z,10.80
2018-09-12T22:37:33.616Z,11.40
2018-09-12T22:40:01.622Z,11.87
2018-09-12T22:42:29.179Z,10.90
2018-09-12T22:44:56.669Z,11.00
2018-09-12T22:47:24.428Z,11.00
2018-09-12T22:49:52.742Z,10.80
2018-09-12T22:52:20.329Z,12.07
2018-09-12T22:54:47.900Z,11.43
2018-09-12T22:57:15.389Z,11.10
2018-09-12T22:59:43.640Z,11.03
2018-09-12T23:02:11.156Z,11.27
2018-09-12T23:04:38.701Z,10.67
2018-09-12T23:07:06.244Z,12.20
2018-09-12T23:09:33.801Z,13.03
2018-09-12T23:12:01.888Z,11.97
2018-09-12T23:14:29.532Z,11.33
2018-09-12T23:16:57.676Z,11.40
2018-09-12T23:19:25.109Z,11.67
2018-09-12T23:21:53.731Z,11.93
2018-09-12T23:24:21.342Z,10.93
2018-09-12T23:26:48.842Z,12.30
2018-09-12T23:29:16.342Z,13.23
2018-09-12T23:31:43.883Z,12.27
2018-09-12T23:34:11.368Z,11.23
2018-09-12T23:36:38.910Z,10.90
2018-09-12T23:39:08.731Z,13.40
2018-09-12T23:41:36.280Z,12.00
2018-09-12T23:44:03.789Z,11.70
2018-09-12T23:46:31.255Z,11.87
2018-09-12T23:48:58.850Z,11.30
2018-09-12T23:51:26.560Z,12.43
2018-09-12T23:53:54.017Z,12.87
2018-09-12T23:56:21.552Z,13.10
2018-09-12T23:58:49.163Z,12.57
